Orbital elements of BREEZE-M DEB
| Launched | 27 February 2006 |
| Flight ended | – |
| Launch site | Tyuratam Missile and Space Center, Kazakhstan (Also known as Baikonur Cosmodrome) |
| Owner | Commonwealth of Independent States (former USSR) |
| NORAD ID | 34226 |
| Date fetched |
Epoch osculation |
Inc. [°] |
Ecc. | RA asc node [hr] |
Arg Peri. [°] |
Mean anom [°] |
Mean motion [rev/day] |
Abs. mag |
| Date fetched |
Epoch osculation |
Inc. [°] |
Ecc. | RA asc node [hr] |
Arg Peri. [°] |
Mean anom [°] |
Mean motion [rev/day] |
Abs. mag |
| 2026 May 07 17:58 | 2026 May 04 21:23:40 | 51.6968 | 0.49100 | 20.9858 | 178.9254 | 182.8651 | 5.60305 | – |
| 2026 May 06 17:57 | 2026 May 04 21:23:40 | 51.6968 | 0.49100 | 20.9858 | 178.9254 | 182.8651 | 5.60305 | – |
| 2026 May 05 17:57 | 2026 May 04 21:23:40 | 51.6968 | 0.49100 | 20.9858 | 178.9254 | 182.8651 | 5.60305 | – |
| 2026 May 04 17:57 | 2026 Apr 29 21:32:37 | 51.6974 | 0.49100 | 21.2523 | 175.9934 | 182.8651 | 5.60305 | – |
| 2026 May 03 17:57 | 2026 Apr 29 21:32:37 | 51.6974 | 0.49100 | 21.2523 | 175.9934 | 182.8651 | 5.60305 | – |
| 2026 May 02 17:57 | 2026 Apr 29 21:32:37 | 51.6974 | 0.49100 | 21.2523 | 175.9934 | 182.8651 | 5.60305 | – |
| 2026 May 01 17:56 | 2026 Apr 29 21:32:37 | 51.6974 | 0.49100 | 21.2523 | 175.9934 | 182.8651 | 5.60305 | – |
| 2026 Apr 30 17:56 | 2026 Apr 29 21:32:37 | 51.6974 | 0.49100 | 21.2523 | 175.9934 | 182.8651 | 5.60305 | – |
| 2026 Apr 29 17:57 | 2026 Apr 24 00:16:47 | 51.7034 | 0.49094 | 21.5660 | 172.4813 | 182.8651 | 5.60305 | – |
| 2026 Apr 28 17:56 | 2026 Apr 24 00:16:47 | 51.7034 | 0.49094 | 21.5660 | 172.4813 | 182.8651 | 5.60305 | – |
| 2026 Apr 27 17:58 | 2026 Apr 24 00:16:47 | 51.7034 | 0.49094 | 21.5660 | 172.4813 | 182.8651 | 5.60305 | – |
| 2026 Apr 26 17:58 | 2026 Apr 24 00:16:47 | 51.7034 | 0.49094 | 21.5660 | 172.4813 | 182.8651 | 5.60305 | – |
| 2026 Apr 25 17:58 | 2026 Apr 24 00:16:47 | 51.7034 | 0.49094 | 21.5660 | 172.4813 | 182.8651 | 5.60305 | – |
| 2026 Apr 24 17:59 | 2026 Apr 24 00:16:47 | 51.7034 | 0.49094 | 21.5660 | 172.4813 | 182.8651 | 5.60305 | – |
| 2026 Apr 23 17:57 | 2026 Apr 17 22:43:25 | 51.6896 | 0.49088 | 21.8896 | 168.8325 | 182.8651 | 5.60305 | – |
| 2026 Apr 22 17:57 | 2026 Apr 17 22:43:25 | 51.6896 | 0.49088 | 21.8896 | 168.8325 | 182.8651 | 5.60305 | – |
| 2026 Apr 21 17:57 | 2026 Apr 17 22:43:25 | 51.6896 | 0.49088 | 21.8896 | 168.8325 | 182.8651 | 5.60305 | – |
| 2026 Apr 20 17:57 | 2026 Apr 17 22:43:25 | 51.6896 | 0.49088 | 21.8896 | 168.8325 | 182.8651 | 5.60305 | – |
| 2026 Apr 19 17:58 | 2026 Apr 17 22:43:25 | 51.6896 | 0.49088 | 21.8896 | 168.8325 | 182.8651 | 5.60305 | – |
| 2026 Apr 18 17:56 | 2026 Apr 10 23:44:56 | 51.6926 | 0.49088 | 22.2605 | 164.7229 | 182.8651 | 5.60305 | – |
| 2026 Apr 16 17:57 | 2026 Apr 10 23:44:56 | 51.6926 | 0.49088 | 22.2605 | 164.7229 | 182.8651 | 5.60305 | – |
| 2026 Apr 14 17:57 | 2026 Apr 10 23:44:56 | 51.6926 | 0.49088 | 22.2605 | 164.7229 | 182.8651 | 5.60305 | – |
| 2026 Apr 13 17:57 | 2026 Apr 10 23:44:56 | 51.6926 | 0.49088 | 22.2605 | 164.7229 | 182.8651 | 5.60305 | – |
| 2026 Apr 12 17:57 | 2026 Apr 08 07:31:29 | 51.6902 | 0.49087 | 22.4032 | 163.1358 | 182.8651 | 5.60305 | – |
| 2026 Apr 11 17:57 | 2026 Apr 08 07:31:29 | 51.6902 | 0.49087 | 22.4032 | 163.1358 | 182.8651 | 5.60305 | – |
| 2026 Apr 10 17:58 | 2026 Apr 08 07:31:29 | 51.6902 | 0.49087 | 22.4032 | 163.1358 | 182.8651 | 5.60305 | – |